createdAt,value
2023-04-28T00:00:03.227Z,1020.7
2023-04-28T00:01:02.083Z,1020.7
2023-04-28T00:02:02.150Z,1020.7
2023-04-28T00:03:02.638Z,1020.7
2023-04-28T00:04:03.629Z,1020.7
2023-04-28T00:05:02.693Z,1020.6
2023-04-28T00:06:02.673Z,1020.6
2023-04-28T00:07:02.422Z,1020.7
2023-04-28T00:08:02.495Z,1020.7
2023-04-28T00:09:02.385Z,1020.7
2023-04-28T00:10:02.438Z,1020.6
2023-04-28T00:11:02.428Z,1020.7
2023-04-28T00:12:02.350Z,1020.7
2023-04-28T00:13:02.391Z,1020.7
2023-04-28T00:14:02.408Z,1020.7
2023-04-28T00:15:02.347Z,1020.7
2023-04-28T00:16:02.420Z,1020.6
2023-04-28T00:17:02.501Z,1020.7
2023-04-28T00:18:02.412Z,1020.6
2023-04-28T00:19:02.392Z,1020.7
2023-04-28T00:20:02.344Z,1020.7
2023-04-28T00:21:02.209Z,1020.7
2023-04-28T00:22:02.285Z,1020.6
2023-04-28T00:23:02.251Z,1020.6
2023-04-28T00:24:02.111Z,1020.6
2023-04-28T00:25:02.242Z,1020.7
2023-04-28T00:26:02.101Z,1020.6
2023-04-28T00:27:02.125Z,1020.6
2023-04-28T00:28:02.007Z,1020.6
2023-04-28T00:29:02.007Z,1020.6
2023-04-28T00:30:01.885Z,1020.6
2023-04-28T00:31:01.886Z,1020.6
2023-04-28T00:32:01.691Z,1020.7
2023-04-28T00:33:03.105Z,1020.7
2023-04-28T00:34:01.882Z,1020.7
2023-04-28T00:35:01.931Z,1020.6
2023-04-28T00:36:02.332Z,1020.7
2023-04-28T00:37:01.943Z,1020.7
2023-04-28T00:38:01.961Z,1020.6
2023-04-28T00:39:01.833Z,1020.6
2023-04-28T00:40:01.873Z,1020.6
2023-04-28T00:41:01.904Z,1020.6
2023-04-28T00:42:01.805Z,1020.6
2023-04-28T00:43:01.671Z,1020.6
2023-04-28T00:44:01.716Z,1020.6
2023-04-28T00:45:02.683Z,1020.6
2023-04-28T00:46:02.650Z,1020.6
2023-04-28T00:47:02.594Z,1020.6
2023-04-28T00:48:02.736Z,1020.6
2023-04-28T00:49:02.455Z,1020.5
2023-04-28T00:50:02.560Z,1020.5
2023-04-28T00:51:02.426Z,1020.6
2023-04-28T00:52:02.475Z,1020.5
2023-04-28T00:53:02.409Z,1020.6
2023-04-28T00:54:02.415Z,1020.6
2023-04-28T00:55:02.514Z,1020.5
2023-04-28T00:56:02.262Z,1020.5
2023-04-28T00:57:02.316Z,1020.5
2023-04-28T00:58:02.260Z,1020.6
2023-04-28T00:59:02.064Z,1020.6
2023-04-28T01:00:03.234Z,1020.5
2023-04-28T01:01:02.231Z,1020.5
2023-04-28T01:02:02.177Z,1020.6
2023-04-28T01:03:02.927Z,1020.6
2023-04-28T01:04:02.704Z,1020.6
2023-04-28T01:05:02.692Z,1020.6
2023-04-28T01:06:02.704Z,1020.6
2023-04-28T01:07:02.550Z,1020.6
2023-04-28T01:08:02.674Z,1020.6
2023-04-28T01:09:01.609Z,1020.6
2023-04-28T01:10:02.674Z,1020.6
2023-04-28T01:11:02.521Z,1020.6
2023-04-28T01:12:02.657Z,1020.7
2023-04-28T01:13:02.584Z,1020.6
2023-04-28T01:14:02.640Z,1020.6
2023-04-28T01:15:02.533Z,1020.7
2023-04-28T01:16:02.587Z,1020.7
2023-04-28T01:17:02.388Z,1020.7
2023-04-28T01:18:02.428Z,1020.7
2023-04-28T01:19:02.291Z,1020.6
2023-04-28T01:20:02.196Z,1020.7
2023-04-28T01:21:02.346Z,1020.6
2023-04-28T01:22:02.234Z,1020.7
2023-04-28T01:23:02.160Z,1020.8
2023-04-28T01:24:02.409Z,1020.7
2023-04-28T01:25:02.102Z,1020.6
2023-04-28T01:26:02.183Z,1020.6
2023-04-28T01:27:01.982Z,1020.7
2023-04-28T01:28:02.009Z,1020.6
2023-04-28T01:29:01.971Z,1020.6
2023-04-28T01:30:01.923Z,1020.6
2023-04-28T01:31:01.684Z,1020.7
2023-04-28T01:32:01.930Z,1020.6
2023-04-28T01:33:02.043Z,1020.6
2023-04-28T01:34:01.801Z,1020.6
2023-04-28T01:35:01.780Z,1020.5
2023-04-28T01:36:01.654Z,1020.5
2023-04-28T01:37:02.682Z,1020.5
2023-04-28T01:38:02.539Z,1020.6
2023-04-28T01:39:02.605Z,1020.5
2023-04-28T01:40:02.483Z,1020.6
2023-04-28T01:41:02.519Z,1020.6
2023-04-28T01:42:02.415Z,1020.6
2023-04-28T01:43:02.503Z,1020.6
2023-04-28T01:44:02.360Z,1020.7
2023-04-28T01:45:02.367Z,1020.6
2023-04-28T01:46:02.574Z,1020.6
2023-04-28T01:47:02.024Z,1020.7
2023-04-28T01:48:02.206Z,1020.6
2023-04-28T01:49:02.009Z,1020.6
2023-04-28T01:50:02.040Z,1020.6
2023-04-28T01:51:01.981Z,1020.6
2023-04-28T01:52:01.948Z,1020.6
2023-04-28T01:53:01.836Z,1020.6
2023-04-28T01:54:01.888Z,1020.7
2023-04-28T01:55:01.724Z,1020.6
2023-04-28T01:56:01.841Z,1020.7
2023-04-28T01:57:02.906Z,1020.6
2023-04-28T01:58:01.733Z,1020.7
2023-04-28T01:59:01.849Z,1020.7
2023-04-28T02:00:02.206Z,1020.6
2023-04-28T02:01:02.358Z,1020.6
2023-04-28T02:03:02.948Z,1020.6
2023-04-28T02:04:02.308Z,1020.5
2023-04-28T02:05:02.138Z,1020.6
2023-04-28T02:06:01.893Z,1020.6
2023-04-28T02:07:01.925Z,1020.6
2023-04-28T02:08:01.765Z,1020.6
2023-04-28T02:09:01.820Z,1020.6
2023-04-28T02:10:01.716Z,1020.6
2023-04-28T02:11:01.930Z,1020.6
2023-04-28T02:12:01.746Z,1020.6
2023-04-28T02:13:01.772Z,1020.7
2023-04-28T02:14:02.704Z,1020.6
2023-04-28T02:15:02.638Z,1020.6
2023-04-28T02:16:02.943Z,1020.6
2023-04-28T02:18:02.588Z,1020.6
2023-04-28T02:19:02.379Z,1020.6
2023-04-28T02:20:02.239Z,1020.5
2023-04-28T02:21:02.235Z,1020.6
2023-04-28T02:22:02.210Z,1020.5
2023-04-28T02:23:02.024Z,1020.5
2023-04-28T02:24:02.085Z,1020.5
2023-04-28T02:25:01.957Z,1020.5
2023-04-28T02:26:01.987Z,1020.5
2023-04-28T02:27:01.811Z,1020.5
2023-04-28T02:28:01.830Z,1020.5
2023-04-28T02:29:01.684Z,1020.5
2023-04-28T02:30:01.753Z,1020.5
2023-04-28T02:31:01.687Z,1020.5
2023-04-28T02:32:02.613Z,1020.5
2023-04-28T02:33:02.834Z,1020.5
2023-04-28T02:34:02.626Z,1020.5
2023-04-28T02:35:02.652Z,1020.5
2023-04-28T02:36:01.615Z,1020.5
2023-04-28T02:37:02.622Z,1020.5
2023-04-28T02:38:02.528Z,1020.5
2023-04-28T02:39:02.559Z,1020.4
2023-04-28T02:40:02.483Z,1020.4
2023-04-28T02:41:02.489Z,1020.4
2023-04-28T02:42:02.417Z,1020.4
2023-04-28T02:43:02.483Z,1020.5
2023-04-28T02:44:02.295Z,1020.4
2023-04-28T02:45:02.340Z,1020.4
2023-04-28T02:46:02.264Z,1020.4
2023-04-28T02:47:02.687Z,1020.4
2023-04-28T02:48:02.601Z,1020.4
2023-04-28T02:49:02.369Z,1020.4
2023-04-28T02:50:02.421Z,1020.4
2023-04-28T02:51:02.514Z,1020.4
2023-04-28T02:52:02.303Z,1020.4
2023-04-28T02:53:02.372Z,1020.4
2023-04-28T02:54:02.334Z,1020.4
2023-04-28T02:55:02.165Z,1020.4
2023-04-28T02:56:02.225Z,1020.3
2023-04-28T02:57:02.019Z,1020.3
2023-04-28T02:58:02.043Z,1020.4
2023-04-28T02:59:01.912Z,1020.3
2023-04-28T03:00:03.287Z,1020.3
2023-04-28T03:01:02.296Z,1020.3
2023-04-28T03:03:02.468Z,1020.3
2023-04-28T03:04:03.028Z,1020.3
2023-04-28T03:05:02.135Z,1020.3
2023-04-28T03:06:01.970Z,1020.3
2023-04-28T03:07:01.775Z,1020.3
2023-04-28T03:08:01.791Z,1020.3
2023-04-28T03:09:01.656Z,1020.3
2023-04-28T03:10:02.156Z,1020.3
2023-04-28T03:11:01.847Z,1020.2
2023-04-28T03:12:01.881Z,1020.2
2023-04-28T03:13:01.776Z,1020.3
2023-04-28T03:14:01.810Z,1020.2
2023-04-28T03:15:01.649Z,1020.2
2023-04-28T03:16:02.975Z,1020.3
2023-04-28T03:18:02.857Z,1020.3
2023-04-28T03:19:02.522Z,1020.3
2023-04-28T03:20:02.551Z,1020.2
2023-04-28T03:21:02.482Z,1020.3
2023-04-28T03:22:02.679Z,1020.3
2023-04-28T03:23:02.491Z,1020.2
2023-04-28T03:24:14.070Z,1020.3
2023-04-28T03:25:01.832Z,1020.3
2023-04-28T03:26:01.887Z,1020.3
2023-04-28T03:27:01.755Z,1020.2
2023-04-28T03:28:01.794Z,1020.3
2023-04-28T03:29:01.685Z,1020.3
2023-04-28T03:30:01.617Z,1020.3
2023-04-28T03:31:02.627Z,1020.3
2023-04-28T03:32:02.537Z,1020.3
2023-04-28T03:33:02.569Z,1020.3
2023-04-28T03:34:02.319Z,1020.2
2023-04-28T03:35:02.244Z,1020.3
2023-04-28T03:36:02.218Z,1020.3
2023-04-28T03:37:02.081Z,1020.3
2023-04-28T03:38:02.142Z,1020.2
2023-04-28T03:39:02.029Z,1020.3
2023-04-28T03:40:02.157Z,1020.3
2023-04-28T03:41:01.920Z,1020.2
2023-04-28T03:42:02.029Z,1020.2
2023-04-28T03:43:05.319Z,1020.3
2023-04-28T03:44:01.970Z,1020.3
2023-04-28T03:45:02.043Z,1020.3
2023-04-28T03:46:02.106Z,1020.2
2023-04-28T03:47:01.892Z,1020.2
2023-04-28T03:48:02.064Z,1020.3
2023-04-28T03:49:01.851Z,1020.3
2023-04-28T03:50:01.866Z,1020.2
2023-04-28T03:51:01.767Z,1020.3
2023-04-28T03:52:01.882Z,1020.2
2023-04-28T03:53:01.723Z,1020.2
2023-04-28T03:54:01.765Z,1020.2
2023-04-28T03:55:01.664Z,1020.2
2023-04-28T03:56:01.785Z,1020.2
2023-04-28T03:57:01.628Z,1020.2
2023-04-28T03:58:01.686Z,1020.2
2023-04-28T03:59:02.662Z,1020.2
2023-04-28T04:00:02.565Z,1020.2
2023-04-28T04:01:02.597Z,1020.2
2023-04-28T04:02:02.318Z,1020.2
2023-04-28T04:03:02.714Z,1020.3
2023-04-28T04:04:03.490Z,1020.3
2023-04-28T04:05:03.194Z,1020.3
2023-04-28T04:06:02.061Z,1020.3
2023-04-28T04:07:01.917Z,1020.3
2023-04-28T04:08:02.666Z,1020.3
2023-04-28T04:09:02.641Z,1020.3
2023-04-28T04:10:05.208Z,1020.3
2023-04-28T04:11:01.873Z,1020.2
2023-04-28T04:12:01.866Z,1020.3
2023-04-28T04:13:01.732Z,1020.3
2023-04-28T04:14:01.848Z,1020.3
2023-04-28T04:15:01.629Z,1020.4
2023-04-28T04:16:01.802Z,1020.3
2023-04-28T04:17:02.511Z,1020.3
2023-04-28T04:18:02.526Z,1020.3
2023-04-28T04:19:02.380Z,1020.3
2023-04-28T04:20:02.362Z,1020.4
2023-04-28T04:21:02.223Z,1020.4
2023-04-28T04:22:02.190Z,1020.4
2023-04-28T04:23:02.244Z,1020.4
2023-04-28T04:24:02.109Z,1020.4
2023-04-28T04:25:02.107Z,1020.4
2023-04-28T04:26:02.003Z,1020.5
2023-04-28T04:27:01.960Z,1020.5
2023-04-28T04:28:01.815Z,1020.5
2023-04-28T04:29:01.960Z,1020.5
2023-04-28T04:30:01.828Z,1020.5
2023-04-28T04:31:01.995Z,1020.6
2023-04-28T04:33:01.887Z,1020.6
2023-04-28T04:34:02.717Z,1020.5
2023-04-28T04:35:02.609Z,1020.5
2023-04-28T04:36:02.635Z,1020.6
2023-04-28T04:37:02.586Z,1020.6
2023-04-28T04:38:02.428Z,1020.5
2023-04-28T04:39:02.360Z,1020.5
2023-04-28T04:40:02.414Z,1020.5
2023-04-28T04:41:02.385Z,1020.6
2023-04-28T04:42:25.939Z,1020.6
2023-04-28T04:43:01.728Z,1020.6
2023-04-28T04:44:01.822Z,1020.6
2023-04-28T04:45:01.752Z,1020.6
2023-04-28T04:46:01.695Z,1020.6
2023-04-28T04:47:02.502Z,1020.6
2023-04-28T04:48:02.585Z,1020.6
2023-04-28T04:49:02.420Z,1020.6
2023-04-28T04:50:02.428Z,1020.6
2023-04-28T04:51:02.329Z,1020.5
2023-04-28T04:52:02.697Z,1020.5
2023-04-28T04:53:02.358Z,1020.6
2023-04-28T04:54:02.417Z,1020.5
2023-04-28T04:55:02.344Z,1020.5
2023-04-28T04:56:02.194Z,1020.5
2023-04-28T04:57:02.212Z,1020.5
2023-04-28T04:58:02.048Z,1020.6
2023-04-28T04:59:02.085Z,1020.5
2023-04-28T05:00:01.955Z,1020.5
2023-04-28T05:01:02.012Z,1020.6
2023-04-28T05:02:01.768Z,1020.6
2023-04-28T05:03:02.043Z,1020.5
2023-04-28T05:04:02.620Z,1020.5
2023-04-28T05:05:22.982Z,1020.5
2023-04-28T05:06:01.826Z,1020.4
2023-04-28T05:07:01.900Z,1020.5
2023-04-28T05:08:01.820Z,1020.5
2023-04-28T05:09:01.793Z,1020.5
2023-04-28T05:10:01.704Z,1020.5
2023-04-28T05:11:01.757Z,1020.5
2023-04-28T05:12:02.723Z,1020.5
2023-04-28T05:13:02.583Z,1020.5
2023-04-28T05:14:02.650Z,1020.5
2023-04-28T05:15:02.516Z,1020.5
2023-04-28T05:16:02.722Z,1020.5
2023-04-28T05:18:02.275Z,1020.5
2023-04-28T05:19:02.057Z,1020.6
2023-04-28T05:20:02.127Z,1020.6
2023-04-28T05:21:02.057Z,1020.5
2023-04-28T05:22:02.026Z,1020.6
2023-04-28T05:23:01.933Z,1020.5
2023-04-28T05:24:01.993Z,1020.5
2023-04-28T05:25:01.816Z,1020.5
2023-04-28T05:26:01.852Z,1020.6
2023-04-28T05:27:01.724Z,1020.5
2023-04-28T05:28:01.739Z,1020.5
2023-04-28T05:29:01.633Z,1020.5
2023-04-28T05:30:02.697Z,1020.5
2023-04-28T05:31:02.682Z,1020.5
2023-04-28T05:33:02.463Z,1020.5
2023-04-28T05:34:02.248Z,1020.5
2023-04-28T05:35:02.063Z,1020.5
2023-04-28T05:36:02.169Z,1020.5
2023-04-28T05:37:02.010Z,1020.5
2023-04-28T05:38:02.101Z,1020.5
2023-04-28T05:39:01.910Z,1020.4
2023-04-28T05:40:02.006Z,1020.5
2023-04-28T05:41:01.757Z,1020.4
2023-04-28T05:42:01.839Z,1020.5
2023-04-28T05:43:01.656Z,1020.4
2023-04-28T05:44:02.739Z,1020.5
2023-04-28T05:45:02.564Z,1020.5
2023-04-28T05:46:02.668Z,1020.5
2023-04-28T05:48:02.127Z,1020.5
2023-04-28T05:49:01.860Z,1020.5
2023-04-28T05:50:01.885Z,1020.5
2023-04-28T05:51:01.784Z,1020.5
2023-04-28T05:52:01.886Z,1020.5
2023-04-28T05:53:01.708Z,1020.5
2023-04-28T05:54:01.774Z,1020.5
2023-04-28T05:55:01.584Z,1020.5
2023-04-28T05:56:01.722Z,1020.5
2023-04-28T05:57:02.653Z,1020.5
2023-04-28T05:58:02.528Z,1020.5
2023-04-28T05:59:02.596Z,1020.5
2023-04-28T06:00:02.546Z,1020.5
2023-04-28T06:01:02.552Z,1020.5
2023-04-28T06:02:02.342Z,1020.5
2023-04-28T06:03:03.137Z,1020.5
2023-04-28T06:04:03.085Z,1020.5
2023-04-28T06:05:03.166Z,1020.5
2023-04-28T06:06:02.340Z,1020.5
2023-04-28T06:07:02.224Z,1020.5
2023-04-28T06:08:02.078Z,1020.5
2023-04-28T06:09:02.141Z,1020.5
2023-04-28T06:10:02.029Z,1020.6
2023-04-28T06:11:02.033Z,1020.6
2023-04-28T06:12:01.918Z,1020.5
2023-04-28T06:13:01.970Z,1020.6
2023-04-28T06:14:01.754Z,1020.6
2023-04-28T06:15:01.802Z,1020.5
2023-04-28T06:16:01.776Z,1020.6
2023-04-28T06:17:02.452Z,1020.5
2023-04-28T06:18:02.780Z,1020.6
2023-04-28T06:19:02.606Z,1020.5
2023-04-28T06:20:02.800Z,1020.5
2023-04-28T06:21:02.586Z,1020.4
2023-04-28T06:22:02.657Z,1020.5
2023-04-28T06:23:02.558Z,1020.5
2023-04-28T06:24:02.677Z,1020.5
2023-04-28T06:25:02.450Z,1020.4
2023-04-28T06:26:02.527Z,1020.4
2023-04-28T06:27:02.402Z,1020.4
2023-04-28T06:28:02.478Z,1020.5
2023-04-28T06:29:02.411Z,1020.4
2023-04-28T06:30:02.359Z,1020.4
2023-04-28T06:31:02.408Z,1020.4
2023-04-28T06:32:02.318Z,1020.4
2023-04-28T06:33:02.189Z,1020.4
2023-04-28T06:34:02.130Z,1020.4
2023-04-28T06:35:01.994Z,1020.4
2023-04-28T06:36:02.016Z,1020.4
2023-04-28T06:37:01.880Z,1020.5
2023-04-28T06:38:01.950Z,1020.5
2023-04-28T06:39:01.820Z,1020.5
2023-04-28T06:40:01.921Z,1020.5
2023-04-28T06:41:01.744Z,1020.5
2023-04-28T06:42:02.233Z,1020.5
2023-04-28T06:43:02.590Z,1020.5
2023-04-28T06:44:02.234Z,1020.5
2023-04-28T06:45:02.200Z,1020.5
2023-04-28T06:46:02.190Z,1020.5
2023-04-28T06:47:02.347Z,1020.6
2023-04-28T06:48:02.212Z,1020.6
2023-04-28T06:49:02.097Z,1020.5
2023-04-28T06:50:01.992Z,1020.5
2023-04-28T06:51:02.241Z,1020.5
2023-04-28T06:52:02.709Z,1020.5
2023-04-28T06:53:01.671Z,1020.5
2023-04-28T06:54:01.735Z,1020.5
2023-04-28T06:55:02.629Z,1020.5
2023-04-28T06:56:02.616Z,1020.5
2023-04-28T06:57:02.605Z,1020.5
2023-04-28T06:58:02.556Z,1020.4
2023-04-28T06:59:02.672Z,1020.4
2023-04-28T07:00:03.525Z,1020.4
2023-04-28T07:01:02.602Z,1020.5
2023-04-28T07:02:02.597Z,1020.4
2023-04-28T07:03:03.115Z,1020.4
2023-04-28T07:04:02.316Z,1020.3
2023-04-28T07:05:02.137Z,1020.4
2023-04-28T07:06:01.983Z,1020.3
2023-04-28T07:07:02.127Z,1020.3
2023-04-28T07:08:02.219Z,1020.3
2023-04-28T07:09:03.212Z,1020.3
2023-04-28T07:10:01.842Z,1020.3
2023-04-28T07:11:01.889Z,1020.2
2023-04-28T07:12:01.779Z,1020.2
2023-04-28T07:13:01.793Z,1020.3
2023-04-28T07:14:01.690Z,1020.2
2023-04-28T07:15:01.704Z,1020.2
2023-04-28T07:16:01.754Z,1020.3
2023-04-28T07:17:02.588Z,1020.2
2023-04-28T07:18:02.730Z,1020.3
2023-04-28T07:19:02.523Z,1020.2
2023-04-28T07:20:02.606Z,1020.2
2023-04-28T07:21:06.017Z,1020.2
2023-04-28T07:22:01.652Z,1020.2
2023-04-28T07:23:01.737Z,1020.2
2023-04-28T07:24:02.656Z,1020.2
2023-04-28T07:25:02.559Z,1020.1
2023-04-28T07:26:02.591Z,1020.2
2023-04-28T07:27:02.493Z,1020.2
2023-04-28T07:28:02.555Z,1020.2
2023-04-28T07:29:02.500Z,1020.2
2023-04-28T07:30:27.617Z,1020.2
2023-04-28T07:31:02.532Z,1020.2
2023-04-28T07:32:02.459Z,1020.2
2023-04-28T07:33:01.895Z,1020.1
2023-04-28T07:34:02.717Z,1020.1
2023-04-28T07:35:02.561Z,1020.1
2023-04-28T07:36:02.752Z,1020
2023-04-28T07:37:02.806Z,1020.1
2023-04-28T07:38:02.791Z,1020.1
2023-04-28T07:39:02.511Z,1020.1
2023-04-28T07:40:02.548Z,1020.1
2023-04-28T07:41:02.424Z,1020.1
2023-04-28T07:42:02.429Z,1020.1
2023-04-28T07:43:02.357Z,1020
2023-04-28T07:44:02.398Z,1020.1
2023-04-28T07:45:02.333Z,1020.1
2023-04-28T07:46:02.435Z,1020.1
2023-04-28T07:47:02.267Z,1020
2023-04-28T07:48:02.714Z,1020
2023-04-28T07:49:02.461Z,1020
2023-04-28T07:50:02.338Z,1020.1
2023-04-28T07:51:02.449Z,1020.1
2023-04-28T07:52:02.472Z,1020.1
2023-04-28T07:53:02.279Z,1020.1
2023-04-28T07:54:02.427Z,1020
2023-04-28T07:55:02.478Z,1020
2023-04-28T07:56:02.250Z,1020
2023-04-28T07:57:02.447Z,1020
2023-04-28T07:58:02.305Z,1020
2023-04-28T07:59:02.207Z,1020.1
2023-04-28T08:00:02.301Z,1020
2023-04-28T08:01:02.228Z,1020
2023-04-28T08:02:02.067Z,1020
2023-04-28T08:03:02.521Z,1019.9
2023-04-28T08:04:03.432Z,1019.9
2023-04-28T08:05:03.420Z,1019.9
2023-04-28T08:06:02.693Z,1019.9
2023-04-28T08:07:02.389Z,1019.9
2023-04-28T08:08:02.334Z,1020
2023-04-28T08:09:02.466Z,1019.9
2023-04-28T08:10:02.391Z,1019.9
2023-04-28T08:11:02.273Z,1019.9
2023-04-28T08:12:02.321Z,1020
2023-04-28T08:13:02.280Z,1019.9
2023-04-28T08:14:02.145Z,1019.9
2023-04-28T08:15:02.164Z,1019.9
2023-04-28T08:16:02.276Z,1019.9
2023-04-28T08:17:01.739Z,1019.9
2023-04-28T08:18:01.874Z,1019.9
2023-04-28T08:19:01.868Z,1019.9
2023-04-28T08:20:01.701Z,1019.9
2023-04-28T08:21:02.669Z,1019.9
2023-04-28T08:22:02.523Z,1019.8
2023-04-28T08:23:02.652Z,1019.9
2023-04-28T08:24:02.491Z,1019.9
2023-04-28T08:25:02.579Z,1019.9
2023-04-28T08:26:02.433Z,1019.8
2023-04-28T08:27:02.491Z,1019.8
2023-04-28T08:28:02.331Z,1019.8
2023-04-28T08:29:02.421Z,1019.8
2023-04-28T08:30:02.536Z,1019.7
2023-04-28T08:31:02.427Z,1019.8
2023-04-28T08:32:02.595Z,1019.8
2023-04-28T08:33:02.595Z,1019.8
2023-04-28T08:34:02.400Z,1019.8
2023-04-28T08:35:02.253Z,1019.7
2023-04-28T08:36:02.267Z,1019.7
2023-04-28T08:37:02.212Z,1019.8
2023-04-28T08:38:02.219Z,1019.8
2023-04-28T08:39:02.128Z,1019.8
2023-04-28T08:40:02.081Z,1019.7
2023-04-28T08:41:02.059Z,1019.7
2023-04-28T08:42:02.613Z,1019.8
2023-04-28T08:43:02.275Z,1019.7
2023-04-28T08:44:02.309Z,1019.7
2023-04-28T08:45:02.204Z,1019.7
2023-04-28T08:46:02.155Z,1019.7
2023-04-28T08:47:02.688Z,1019.7
2023-04-28T08:48:02.591Z,1019.8
2023-04-28T08:49:02.500Z,1019.7
2023-04-28T08:50:02.532Z,1019.7
2023-04-28T08:51:02.451Z,1019.6
2023-04-28T08:52:02.483Z,1019.6
2023-04-28T08:53:02.364Z,1019.6
2023-04-28T08:54:30.094Z,1019.6
2023-04-28T08:55:01.796Z,1019.6
2023-04-28T08:56:01.776Z,1019.6
2023-04-28T08:57:01.737Z,1019.7
2023-04-28T08:58:01.679Z,1019.6
2023-04-28T08:59:01.544Z,1019.6
2023-04-28T09:00:02.693Z,1019.6
2023-04-28T09:01:02.525Z,1019.5
2023-04-28T09:02:02.534Z,1019.6
2023-04-28T09:03:03.172Z,1019.5
2023-04-28T09:04:02.552Z,1019.6
2023-04-28T09:05:03.502Z,1019.6
2023-04-28T09:06:02.274Z,1019.6
2023-04-28T09:07:02.292Z,1019.6
2023-04-28T09:08:02.244Z,1019.5
2023-04-28T09:09:02.218Z,1019.6
2023-04-28T09:10:02.251Z,1019.5
2023-04-28T09:11:02.306Z,1019.5
2023-04-28T09:12:02.216Z,1019.5
2023-04-28T09:13:02.201Z,1019.5
2023-04-28T09:14:02.018Z,1019.5
2023-04-28T09:15:02.056Z,1019.4
2023-04-28T09:16:02.098Z,1019.4
2023-04-28T09:17:02.003Z,1019.5
2023-04-28T09:18:02.341Z,1019.4
2023-04-28T09:19:02.028Z,1019.4
2023-04-28T09:20:02.103Z,1019.4
2023-04-28T09:21:02.516Z,1019.5
2023-04-28T09:22:26.013Z,1019.4
2023-04-28T09:23:02.230Z,1019.4
2023-04-28T09:24:02.148Z,1019.5
2023-04-28T09:25:01.925Z,1019.5
2023-04-28T09:26:01.989Z,1019.5
2023-04-28T09:27:01.832Z,1019.5
2023-04-28T09:28:01.928Z,1019.4
2023-04-28T09:29:01.790Z,1019.5
2023-04-28T09:30:01.842Z,1019.3
2023-04-28T09:31:01.660Z,1019.3
2023-04-28T09:32:01.793Z,1019.3
2023-04-28T09:33:02.776Z,1019.3
2023-04-28T09:34:02.487Z,1019.3
2023-04-28T09:35:02.597Z,1019.3
2023-04-28T09:36:02.471Z,1019.3
2023-04-28T09:37:02.510Z,1019.2
2023-04-28T09:38:02.351Z,1019.3
2023-04-28T09:39:02.440Z,1019.3
2023-04-28T09:40:02.400Z,1019.2
2023-04-28T09:41:02.433Z,1019.2
2023-04-28T09:42:05.470Z,1019.2
2023-04-28T09:43:22.207Z,1019.2
2023-04-28T09:44:02.019Z,1019.2
2023-04-28T09:45:01.892Z,1019.2
2023-04-28T09:46:02.278Z,1019.2
2023-04-28T09:47:04.061Z,1019.2
2023-04-28T09:48:01.890Z,1019.2
2023-04-28T09:49:01.738Z,1019.2
2023-04-28T09:50:02.670Z,1019.2
2023-04-28T09:51:02.551Z,1019.1
2023-04-28T09:52:02.645Z,1019.1
2023-04-28T09:53:02.525Z,1019.1
2023-04-28T09:54:02.551Z,1019.2
2023-04-28T09:55:02.461Z,1019
2023-04-28T09:56:02.531Z,1019.1
2023-04-28T09:57:02.497Z,1019
2023-04-28T09:58:02.381Z,1019
2023-04-28T09:59:02.367Z,1019
2023-04-28T10:00:02.375Z,1018.9
2023-04-28T10:01:02.569Z,1019
2023-04-28T10:02:44.163Z,1019
2023-04-28T10:03:02.567Z,1019
2023-04-28T10:04:02.857Z,1018.9
2023-04-28T10:05:02.845Z,1018.9
2023-04-28T10:06:01.660Z,1018.8
2023-04-28T10:07:01.722Z,1018.9
2023-04-28T10:08:02.749Z,1018.8
2023-04-28T10:09:03.394Z,1018.7
2023-04-28T10:10:02.103Z,1018.8
2023-04-28T10:11:02.119Z,1018.8
2023-04-28T10:12:02.025Z,1018.8
2023-04-28T10:13:02.066Z,1018.8
2023-04-28T10:14:01.955Z,1018.8
2023-04-28T10:15:01.947Z,1018.8
2023-04-28T10:16:02.030Z,1018.8
2023-04-28T10:17:02.031Z,1018.9
2023-04-28T10:18:02.323Z,1018.7
2023-04-28T10:19:02.017Z,1018.7
2023-04-28T10:20:02.057Z,1018.7
2023-04-28T10:21:01.838Z,1018.8
2023-04-28T10:22:01.862Z,1018.7
2023-04-28T10:23:01.728Z,1018.6
2023-04-28T10:24:01.716Z,1018.7
2023-04-28T10:25:01.696Z,1018.6
2023-04-28T10:26:01.808Z,1018.6
2023-04-28T10:27:01.600Z,1018.7
2023-04-28T10:28:02.650Z,1018.6
2023-04-28T10:29:02.611Z,1018.6
2023-04-28T10:30:19.284Z,1018.6
2023-04-28T10:31:02.501Z,1018.7
2023-04-28T10:32:02.610Z,1018.7
2023-04-28T10:33:01.764Z,1018.7
2023-04-28T10:34:02.659Z,1018.7
2023-04-28T10:35:02.549Z,1018.7
2023-04-28T10:36:02.539Z,1018.7
2023-04-28T10:37:02.574Z,1018.6
2023-04-28T10:38:01.723Z,1018.5
2023-04-28T10:39:02.676Z,1018.6
2023-04-28T10:40:02.627Z,1018.5
2023-04-28T10:41:02.653Z,1018.5
2023-04-28T10:42:02.528Z,1018.6
2023-04-28T10:43:02.629Z,1018.7
2023-04-28T10:44:02.511Z,1018.6
2023-04-28T10:45:02.590Z,1018.6
2023-04-28T10:46:03.029Z,1018.4
2023-04-28T10:48:01.949Z,1018.4
2023-04-28T10:49:01.673Z,1018.5
2023-04-28T10:50:02.855Z,1018.3
2023-04-28T10:51:02.683Z,1018.4
2023-04-28T10:52:01.779Z,1018.4
2023-04-28T10:53:01.639Z,1018.3
2023-04-28T10:54:02.594Z,1018.3
2023-04-28T10:55:22.771Z,1018.3
2023-04-28T10:56:02.492Z,1018.3
2023-04-28T10:57:02.548Z,1018.3
2023-04-28T10:58:02.447Z,1018.2
2023-04-28T10:59:02.577Z,1018.3
2023-04-28T11:00:02.494Z,1018.2
2023-04-28T11:01:02.656Z,1018.2
2023-04-28T11:02:02.609Z,1018.1
2023-04-28T11:03:02.963Z,1018.2
2023-04-28T11:04:02.639Z,1018.2
2023-04-28T11:05:02.209Z,1018.1
2023-04-28T11:06:01.937Z,1018.1
2023-04-28T11:07:01.972Z,1018.1
2023-04-28T11:08:01.813Z,1018.2
2023-04-28T11:09:01.923Z,1018.2
2023-04-28T11:10:01.736Z,1018.1
2023-04-28T11:11:01.847Z,1018.1
2023-04-28T11:12:01.716Z,1018.1
2023-04-28T11:13:01.685Z,1018
2023-04-28T11:14:02.661Z,1018.1
2023-04-28T11:15:02.571Z,1018
2023-04-28T11:16:02.779Z,1018
2023-04-28T11:18:01.970Z,1018
2023-04-28T11:19:01.701Z,1017.9
2023-04-28T11:20:01.716Z,1018
2023-04-28T11:21:01.627Z,1018
2023-04-28T11:22:02.663Z,1018
2023-04-28T11:23:02.512Z,1018
2023-04-28T11:24:02.566Z,1018
2023-04-28T11:25:02.575Z,1017.9
2023-04-28T11:26:02.524Z,1018
2023-04-28T11:27:02.574Z,1017.9
2023-04-28T11:28:02.444Z,1018
2023-04-28T11:29:02.423Z,1018
2023-04-28T11:30:02.603Z,1017.9
2023-04-28T11:31:02.377Z,1017.8
2023-04-28T11:32:02.101Z,1017.8
2023-04-28T11:33:02.082Z,1017.9
2023-04-28T11:34:01.882Z,1017.9
2023-04-28T11:35:01.867Z,1018.1
2023-04-28T11:36:01.681Z,1017.8
2023-04-28T11:37:01.764Z,1017.8
2023-04-28T11:38:01.576Z,1017.8
2023-04-28T11:39:02.686Z,1017.8
2023-04-28T11:40:02.576Z,1017.8
2023-04-28T11:41:02.687Z,1017.7
2023-04-28T11:42:03.049Z,1017.8
2023-04-28T11:43:02.372Z,1017.8
2023-04-28T11:44:01.993Z,1017.8
2023-04-28T11:45:02.075Z,1017.8
2023-04-28T11:46:02.251Z,1017.8
2023-04-28T11:47:03.737Z,1017.8
2023-04-28T11:48:02.225Z,1017.8
2023-04-28T11:49:02.120Z,1017.9
2023-04-28T11:50:02.498Z,1017.7
2023-04-28T11:51:02.125Z,1017.8
2023-04-28T11:52:02.219Z,1017.7
2023-04-28T11:53:02.076Z,1017.7
2023-04-28T11:54:02.120Z,1017.7
2023-04-28T11:55:02.008Z,1017.7
2023-04-28T11:56:01.941Z,1017.7
2023-04-28T11:57:01.777Z,1017.7
2023-04-28T11:58:01.865Z,1017.7
2023-04-28T11:59:04.397Z,1017.6
2023-04-28T12:00:02.249Z,1017.7
2023-04-28T12:01:02.272Z,1017.7
2023-04-28T12:02:02.335Z,1017.7
2023-04-28T12:03:02.632Z,1017.7
2023-04-28T12:04:02.758Z,1017.7
2023-04-28T12:05:02.609Z,1017.7
2023-04-28T12:06:02.679Z,1017.7
2023-04-28T12:07:02.629Z,1017.6
2023-04-28T12:08:02.373Z,1017.6
2023-04-28T12:09:02.471Z,1017.7
2023-04-28T12:10:02.345Z,1017.6
2023-04-28T12:11:02.378Z,1017.5
2023-04-28T12:12:02.311Z,1017.6
2023-04-28T12:13:02.161Z,1017.6
2023-04-28T12:14:02.159Z,1017.5
2023-04-28T12:15:02.084Z,1017.5
2023-04-28T12:16:02.359Z,1017.4
2023-04-28T12:17:01.824Z,1017.4
2023-04-28T12:18:02.084Z,1017.4
2023-04-28T12:19:01.754Z,1017.5
2023-04-28T12:20:01.845Z,1017.5
2023-04-28T12:21:01.676Z,1017.5
2023-04-28T12:22:02.711Z,1017.5
2023-04-28T12:23:02.655Z,1017.6
2023-04-28T12:24:02.685Z,1017.5
2023-04-28T12:25:02.538Z,1017.4
2023-04-28T12:26:02.582Z,1017.4
2023-04-28T12:27:02.525Z,1017.4
2023-04-28T12:28:03.160Z,1017.4
2023-04-28T12:29:01.899Z,1017.4
2023-04-28T12:30:01.927Z,1017.3
2023-04-28T12:31:01.949Z,1017.2
2023-04-28T12:32:02.093Z,1017.2
2023-04-28T12:33:02.395Z,1017.2
2023-04-28T12:34:02.079Z,1017.3
2023-04-28T12:35:02.092Z,1017.3
2023-04-28T12:36:01.981Z,1017.2
2023-04-28T12:37:02.098Z,1017.2
2023-04-28T12:38:01.889Z,1017.2
2023-04-28T12:39:01.903Z,1017.2
2023-04-28T12:40:01.918Z,1017.1